Time;durP1;ratioP1;P1;durP2;ratioP2;P2;SDS_P1;SDS_P2;PMS_P1;PMS_P2;Temp;Humidity;BMP_temperature;BMP_pressure;BME280_temperature;BME280_humidity;BME280_pressure;Samples;Min_cycle;Max_cycle;Signal;HPM_P1;HPM_P2
2020/12/21 00:01:23;;;;;;;12.10;11.10;;;;;;;6.37;90.10;100985.06;5051479;28;20178;-74
2020/12/21 00:03:48;;;;;;;16.40;10.83;;;;;;;6.35;89.97;100979.88;5053461;28;20182;-73
2020/12/21 00:06:15;;;;;;;12.60;11.40;;;;;;;6.38;90.38;100982.09;5053349;28;20178;-73
2020/12/21 00:08:43;;;;;;;12.70;11.50;;;;;;;6.43;90.29;100982.06;5053485;28;20171;-73
2020/12/21 00:11:09;;;;;;;4.60;4.20;;;;;;;6.46;89.82;100980.72;5053367;28;20163;-72
2020/12/21 00:13:42;;;;;;;11.63;10.73;;;;;;;6.42;89.81;100969.59;5052044;28;20209;-72
2020/12/21 00:16:08;;;;;;;11.13;10.23;;;;;;;6.46;89.82;100975.28;5053170;28;20171;-73
2020/12/21 00:18:33;;;;;;;10.13;9.27;;;;;;;6.47;90.10;100969.59;5053044;28;20199;-73
2020/12/21 00:20:58;;;;;;;11.60;10.43;;;;;;;6.50;89.37;100973.66;5051969;28;20219;-73
2020/12/21 00:23:24;;;;;;;13.03;10.80;;;;;;;6.37;89.83;100972.31;5053198;28;20530;-73
2020/12/21 00:25:49;;;;;;;12.23;10.40;;;;;;;6.36;89.96;100969.84;5053013;28;20168;-73
2020/12/21 00:28:14;;;;;;;11.57;10.57;;;;;;;6.40;89.49;100979.91;5051727;28;20183;-73
2020/12/21 00:30:40;;;;;;;10.43;9.43;;;;;;;6.45;89.09;100981.81;5052991;28;20178;-73
2020/12/21 00:33:05;;;;;;;10.40;9.53;;;;;;;6.43;89.29;100976.66;5053004;28;20175;-73
2020/12/21 00:35:31;;;;;;;10.30;9.40;;;;;;;6.43;88.91;100986.69;5053037;28;20197;-72
2020/12/21 00:37:56;;;;;;;10.53;9.70;;;;;;;6.39;89.03;100993.75;5052633;28;20728;-74
2020/12/21 00:40:21;;;;;;;9.77;8.90;;;;;;;6.38;88.83;100992.94;5052853;28;20175;-73
2020/12/21 00:42:47;;;;;;;10.50;9.60;;;;;;;6.39;89.06;101004.59;5052928;28;20171;-73
2020/12/21 00:45:12;;;;;;;9.10;8.30;;;;;;;6.36;89.45;101000.50;5052682;28;20202;-73
2020/12/21 00:47:37;;;;;;;9.83;8.93;;;;;;;6.41;88.85;100997.81;5052372;28;20309;-73
2020/12/21 00:50:04;;;;;;;9.23;8.53;;;;;;;6.33;89.03;101000.25;5051279;28;20172;-74
2020/12/21 00:52:30;;;;;;;9.73;7.33;;;;;;;6.39;88.93;101005.44;5052639;28;20649;-73
2020/12/21 00:54:55;;;;;;;8.70;6.33;;;;;;;6.41;88.28;101003.25;5052640;28;20258;-72
2020/12/21 00:57:20;;;;;;;6.87;6.27;;;;;;;6.41;87.92;101005.97;5052372;28;20623;-73
2020/12/21 00:59:46;;;;;;;9.43;6.90;;;;;;;6.34;88.31;101002.69;5052443;28;20175;-73
2020/12/21 01:02:11;;;;;;;7.93;7.13;;;;;;;6.39;87.71;101005.44;5052489;28;20179;-74
2020/12/21 01:04:36;;;;;;;8.07;6.73;;;;;;;6.37;87.90;101013.03;5052517;28;20171;-72
2020/12/21 01:07:03;;;;;;;7.03;6.43;;;;;;;6.38;87.02;101011.13;5052235;28;20184;-73
2020/12/21 01:09:29;;;;;;;8.27;7.43;;;;;;;6.36;86.90;101005.13;5052237;28;20175;-74
2020/12/21 01:11:54;;;;;;;7.07;6.43;;;;;;;6.28;87.48;100998.34;5051660;28;20175;-72
2020/12/21 01:14:19;;;;;;;6.27;5.77;;;;;;;6.25;87.14;101010.56;5051784;28;20203;-73
2020/12/21 01:16:45;;;;;;;7.77;6.70;;;;;;;6.19;87.14;101010.78;5052057;28;20195;-73
2020/12/21 01:19:10;;;;;;;7.43;6.73;;;;;;;6.11;87.67;101014.88;5052193;28;20232;-73
2020/12/21 01:21:36;;;;;;;6.93;6.33;;;;;;;6.07;87.92;101002.09;5052080;28;20179;-73
2020/12/21 01:24:01;;;;;;;7.10;6.50;;;;;;;6.00;87.87;101005.06;5052080;28;20183;-73
2020/12/21 01:26:28;;;;;;;3.40;3.10;;;;;;;5.98;87.86;101009.94;5052039;28;20179;-72
2020/12/21 01:28:54;;;;;;;7.77;6.97;;;;;;;6.00;88.42;101013.19;5051928;28;20171;-74
2020/12/21 01:31:20;;;;;;;7.70;6.87;;;;;;;5.99;88.31;101010.75;5051854;28;20201;-74
2020/12/21 01:33:47;;;;;;;7.70;6.90;;;;;;;5.91;88.36;101014.78;5051792;28;20175;-74
2020/12/21 01:36:13;;;;;;;7.60;6.80;;;;;;;5.79;88.26;101012.28;5051689;28;20229;-73
2020/12/21 01:38:38;;;;;;;10.47;8.10;;;;;;;5.76;88.76;101009.28;5051695;28;20214;-73
2020/12/21 01:41:04;;;;;;;7.13;6.43;;;;;;;5.78;89.12;101010.63;5051673;28;20647;-73
2020/12/21 01:43:29;;;;;;;9.30;8.37;;;;;;;5.74;88.84;101014.97;5051460;28;20215;-72
2020/12/21 01:45:54;;;;;;;9.20;7.40;;;;;;;5.69;88.83;101006.81;5051651;28;20175;-73
2020/12/21 01:48:20;;;;;;;6.60;6.00;;;;;;;5.68;89.07;101006.00;5051198;28;20643;-72
2020/12/21 01:50:45;;;;;;;8.83;7.50;;;;;;;5.74;89.12;101011.44;5051403;28;20229;-74
2020/12/21 01:53:11;;;;;;;10.07;7.80;;;;;;;5.76;89.01;101017.41;5051347;28;20282;-73
2020/12/21 01:55:42;;;;;;;7.83;7.03;;;;;;;5.74;89.07;101008.72;5051296;28;20171;-73
2020/12/21 01:58:08;;;;;;;7.63;7.00;;;;;;;5.73;88.97;101010.63;5050941;28;20610;-73
2020/12/21 02:00:34;;;;;;;9.13;7.63;;;;;;;5.62;89.21;101004.34;5051141;28;20225;-73
2020/12/21 02:02:59;;;;;;;8.67;7.83;;;;;;;5.69;89.24;101004.13;5051295;28;20649;-73
2020/12/21 02:05:25;;;;;;;8.50;7.43;;;;;;;5.73;88.97;101002.50;5051148;28;20260;-72
2020/12/21 02:07:51;;;;;;;9.67;7.57;;;;;;;5.68;88.74;100995.16;5051156;28;20175;-72
2020/12/21 02:10:17;;;;;;;7.33;6.63;;;;;;;5.70;88.74;101000.31;5051103;28;20175;-73
2020/12/21 02:12:43;;;;;;;10.13;7.27;;;;;;;5.66;88.47;100999.22;5051089;28;20177;-73
2020/12/21 02:15:08;;;;;;;7.13;6.53;;;;;;;5.58;88.21;101000.53;5051422;28;20183;-73
2020/12/21 02:17:33;;;;;;;7.17;6.47;;;;;;;5.50;88.41;101003.78;5050974;28;20238;-74
2020/12/21 02:19:59;;;;;;;8.00;7.00;;;;;;;5.36;88.89;100992.59;5051057;28;20171;-75
2020/12/21 02:22:24;;;;;;;8.20;7.40;;;;;;;5.34;89.59;100988.50;5050740;28;20197;-74
2020/12/21 02:24:49;;;;;;;7.77;7.00;;;;;;;5.38;89.54;100984.19;5050681;28;20177;-74
2020/12/21 02:27:15;;;;;;;8.20;6.80;;;;;;;5.35;89.89;100985.53;5050739;28;20179;-73
2020/12/21 02:29:40;;;;;;;9.23;7.33;;;;;;;5.33;89.46;100984.97;5050965;28;20191;-73
2020/12/21 02:32:06;;;;;;;10.07;6.97;;;;;;;5.29;89.48;100980.34;5050848;28;20175;-74
2020/12/21 02:34:31;;;;;;;8.13;7.43;;;;;;;5.31;89.83;100979.00;5050620;28;20186;-73
2020/12/21 02:36:57;;;;;;;10.57;7.80;;;;;;;5.33;89.80;100979.53;5050521;28;20227;-74
2020/12/21 02:39:23;;;;;;;8.73;7.30;;;;;;;5.33;89.83;100981.44;5050647;28;20565;-73
2020/12/21 02:41:49;;;;;;;10.33;8.17;;;;;;;5.34;90.16;100980.34;5050574;28;20681;-72
2020/12/21 02:44:15;;;;;;;7.47;6.40;;;;;;;5.29;90.04;100981.16;5051846;28;20171;-72
2020/12/21 02:46:45;;;;;;;12.47;7.53;;;;;;;5.34;90.30;100978.47;5059307;28;20654;-72
2020/12/21 02:49:11;;;;;;;10.00;7.93;;;;;;;5.38;89.97;100981.47;5052773;28;20183;-72
2020/12/21 02:51:37;;;;;;;9.17;7.43;;;;;;;5.41;89.71;100977.44;5051445;28;20186;-71
2020/12/21 02:54:03;;;;;;;9.03;7.97;;;;;;;5.49;89.85;100971.50;5050762;28;20176;-72
2020/12/21 02:56:28;;;;;;;7.47;4.80;;;;;;;5.51;89.47;100977.47;5050356;28;20186;-71
2020/12/21 02:58:54;;;;;;;6.43;4.93;;;;;;;5.50;89.06;100982.09;5050558;28;20179;-72
2020/12/21 03:01:19;;;;;;;8.83;7.53;;;;;;;5.51;88.88;100988.31;5050540;28;20685;-72
2020/12/21 03:03:44;;;;;;;9.53;7.43;;;;;;;5.45;88.94;100989.38;5050695;28;20213;-72
2020/12/21 03:06:10;;;;;;;7.03;5.70;;;;;;;5.43;89.39;100988.81;5050550;28;20647;-72
2020/12/21 03:08:35;;;;;;;7.53;6.73;;;;;;;5.45;89.33;100992.06;5050460;28;20635;-71
2020/12/21 03:11:00;;;;;;;8.13;6.67;;;;;;;5.48;89.16;100999.66;5050412;28;20175;-73
2020/12/21 03:13:25;;;;;;;10.57;7.50;;;;;;;5.47;89.11;100996.16;5050632;28;20758;-72
2020/12/21 03:15:51;;;;;;;7.80;7.00;;;;;;;5.47;88.97;101000.75;5050470;28;20650;-72
2020/12/21 03:18:16;;;;;;;8.10;7.40;;;;;;;5.43;88.85;100994.22;5050169;28;20726;-72
2020/12/21 03:20:41;;;;;;;8.50;6.10;;;;;;;5.41;88.56;100999.09;5050188;28;20753;-72
2020/12/21 03:23:07;;;;;;;7.60;6.90;;;;;;;5.36;89.23;100992.59;5050399;28;20175;-72
2020/12/21 03:25:32;;;;;;;10.73;7.20;;;;;;;5.34;89.38;100999.31;5049940;28;20198;-72
2020/12/21 03:27:57;;;;;;;7.90;6.63;;;;;;;5.35;89.09;100999.09;5049340;28;20207;-72
2020/12/21 03:30:23;;;;;;;8.20;7.40;;;;;;;5.33;89.34;100995.81;5050240;28;20179;-72
2020/12/21 03:32:49;;;;;;;7.80;7.10;;;;;;;5.31;89.60;100997.16;5050303;28;20210;-72
2020/12/21 03:35:14;;;;;;;9.53;8.50;;;;;;;5.33;89.32;100998.50;5048861;28;20175;-72
2020/12/21 03:37:39;;;;;;;8.97;8.07;;;;;;;5.25;89.50;100990.09;5053888;28;20237;-72
2020/12/21 03:40:07;;;;;;;10.73;8.33;;;;;;;5.23;89.54;100986.81;5053912;28;20504;-72
2020/12/21 03:42:32;;;;;;;8.17;7.37;;;;;;;5.23;89.44;100989.53;5054078;28;20179;-72
2020/12/21 03:44:58;;;;;;;8.40;7.70;;;;;;;5.22;89.42;100993.31;5054042;28;20229;-72
2020/12/21 03:47:23;;;;;;;8.90;8.10;;;;;;;5.23;89.80;100992.25;5053760;28;20686;-72
2020/12/21 03:49:49;;;;;;;9.17;7.50;;;;;;;5.23;89.43;100992.25;5053831;28;20183;-73
2020/12/21 03:52:14;;;;;;;8.50;7.67;;;;;;;5.22;89.44;100996.03;5053617;28;20180;-72
2020/12/21 03:54:39;;;;;;;10.03;6.70;;;;;;;5.18;89.30;101001.13;5054116;28;20627;-72
2020/12/21 03:57:05;;;;;;;7.90;7.20;;;;;;;5.14;89.26;101000.03;5053562;28;20230;-72
2020/12/21 03:59:30;;;;;;;8.73;7.33;;;;;;;5.17;89.35;100996.78;5053797;28;20262;-72
2020/12/21 04:01:56;;;;;;;10.33;7.67;;;;;;;5.18;89.46;100992.19;5053601;28;20180;-72
2020/12/21 04:04:21;;;;;;;10.67;7.63;;;;;;;5.20;89.67;100995.44;5053605;28;20183;-72
2020/12/21 04:06:46;;;;;;;7.87;6.77;;;;;;;5.20;89.48;100998.97;5053380;28;20194;-72
2020/12/21 04:09:12;;;;;;;7.33;6.73;;;;;;;5.11;89.01;100997.84;5052233;28;20205;-71
2020/12/21 04:11:37;;;;;;;11.80;6.50;;;;;;;5.07;89.29;100999.47;5053316;28;20176;-72
2020/12/21 04:14:02;;;;;;;8.60;6.97;;;;;;;5.07;89.51;101002.16;5053595;28;20256;-72
2020/12/21 04:16:27;;;;;;;9.27;6.73;;;;;;;5.02;89.02;100996.69;5053233;28;20180;-72
2020/12/21 04:18:53;;;;;;;7.47;6.80;;;;;;;4.97;89.45;101002.91;5053361;28;20187;-73
2020/12/21 04:21:18;;;;;;;7.53;6.83;;;;;;;4.89;89.86;101007.97;5053355;28;20175;-73
2020/12/21 04:23:43;;;;;;;8.67;7.87;;;;;;;4.83;89.79;100998.19;5053291;28;20255;-73
2020/12/21 04:26:09;;;;;;;11.73;8.00;;;;;;;4.92;89.92;100992.06;5052980;28;20746;-72
2020/12/21 04:28:35;;;;;;;10.60;8.60;;;;;;;4.90;90.02;100999.59;5053200;28;20578;-72
2020/12/21 04:31:04;;;;;;;9.23;7.87;;;;;;;4.92;89.89;101005.59;5053102;28;20175;-73
2020/12/21 04:33:30;;;;;;;9.63;8.73;;;;;;;4.97;90.25;101002.09;5052992;28;20180;-71
2020/12/21 04:35:56;;;;;;;10.27;9.27;;;;;;;5.02;90.39;101007.53;5053044;28;20179;-73
2020/12/21 04:38:21;;;;;;;11.97;10.83;;;;;;;5.01;90.59;101000.47;5052638;28;20666;-72
2020/12/21 04:40:57;;;;;;;12.17;8.03;;;;;;;5.10;90.46;100998.13;5052669;28;20175;-72
2020/12/21 04:43:23;;;;;;;10.77;9.83;;;;;;;5.17;90.63;101004.91;5052875;28;20163;-72
2020/12/21 04:46:01;;;;;;;11.47;10.37;;;;;;;5.17;90.27;100987.84;5052691;28;20185;-73
2020/12/21 04:48:28;;;;;;;12.23;11.03;;;;;;;5.15;90.50;100998.94;5051100;28;20639;-72
2020/12/21 04:50:55;;;;;;;11.40;10.30;;;;;;;5.18;90.21;100998.44;5052753;28;20179;-73
2020/12/21 04:53:22;;;;;;;9.70;8.23;;;;;;;5.23;90.24;101001.19;5052574;28;20233;-73
2020/12/21 04:55:48;;;;;;;12.33;9.67;;;;;;;5.31;89.80;100999.84;5053322;28;20183;-73
2020/12/21 04:58:13;;;;;;;9.70;7.97;;;;;;;5.36;89.67;101002.63;5052510;28;20211;-73
2020/12/21 05:00:39;;;;;;;8.53;7.73;;;;;;;5.35;89.27;100985.53;5052497;28;20179;-73
2020/12/21 05:03:05;;;;;;;11.20;10.20;;;;;;;5.29;89.43;100983.88;5052624;28;20175;-73
2020/12/21 05:05:34;;;;;;;10.63;8.87;;;;;;;5.29;89.48;100992.00;5052825;28;20178;-72
2020/12/21 05:08:22;;;;;;;10.27;9.03;;;;;;;5.28;89.02;100998.50;5052287;28;20252;-73
2020/12/21 05:11:03;;;;;;;8.83;8.03;;;;;;;5.20;89.35;100981.91;5052431;28;20187;-73
2020/12/21 05:13:30;;;;;;;8.97;8.07;;;;;;;5.19;89.27;100975.69;5052461;28;20183;-72
2020/12/21 05:15:56;;;;;;;10.77;9.43;;;;;;;5.13;89.69;100989.47;5052119;28;20205;-73
2020/12/21 05:18:30;;;;;;;10.50;9.50;;;;;;;5.16;89.95;100980.81;5051787;28;20215;-73
2020/12/21 05:21:04;;;;;;;11.80;10.60;;;;;;;5.15;89.48;100984.59;5052164;28;20608;-72
2020/12/21 05:23:30;;;;;;;8.47;7.27;;;;;;;5.14;89.58;100978.38;5052115;28;20185;-74
2020/12/21 05:26:10;;;;;;;12.43;8.53;;;;;;;5.13;89.46;100997.59;5052143;28;20182;-73
2020/12/21 05:28:40;;;;;;;9.30;7.23;;;;;;;5.12;89.40;100991.34;5051800;28;20187;-72
2020/12/21 05:31:08;;;;;;;8.17;7.43;;;;;;;5.08;89.83;100995.69;5051933;28;20171;-73
2020/12/21 05:33:39;;;;;;;8.90;8.00;;;;;;;5.04;89.89;100992.66;5051835;28;20546;-73
2020/12/21 05:36:09;;;;;;;9.27;8.33;;;;;;;5.05;89.78;100996.16;5051914;28;20593;-73
2020/12/21 05:38:35;;;;;;;12.60;10.40;;;;;;;5.07;89.84;101002.16;5052110;28;20211;-73
2020/12/21 05:41:17;;;;;;;13.27;7.40;;;;;;;5.10;89.59;101004.34;5051753;28;20183;-73
2020/12/21 05:43:43;;;;;;;13.90;10.27;;;;;;;5.06;89.79;100989.69;5051698;28;20171;-73
2020/12/21 05:46:29;;;;;;;11.77;9.67;;;;;;;5.11;89.29;100987.03;5051632;28;20172;-73
2020/12/21 05:48:56;;;;;;;16.37;8.40;;;;;;;5.09;89.49;100989.19;5051018;28;20195;-72
2020/12/21 05:51:23;;;;;;;11.80;10.23;;;;;;;5.10;89.28;100981.88;5051209;28;20180;-73
2020/12/21 05:53:52;;;;;;;10.47;9.47;;;;;;;5.07;89.38;100975.09;5051457;28;20182;-73
2020/12/21 05:56:19;;;;;;;10.17;8.83;;;;;;;5.06;89.32;100982.41;5051346;28;20175;-73
2020/12/21 05:58:45;;;;;;;9.87;8.77;;;;;;;5.06;89.20;100973.44;5050830;28;20210;-73
2020/12/21 06:01:12;;;;;;;12.03;9.70;;;;;;;4.93;89.71;100971.22;5051430;28;20171;-72
2020/12/21 06:03:48;;;;;;;13.13;10.03;;;;;;;4.92;89.41;100980.38;5051410;28;20281;-72
2020/12/21 06:06:24;;;;;;;12.63;10.87;;;;;;;4.88;89.69;100977.38;5051072;28;20863;-72
2020/12/21 06:08:54;;;;;;;10.77;9.67;;;;;;;4.98;89.27;100976.66;5051439;28;20178;-73
2020/12/21 06:11:22;;;;;;;10.43;8.43;;;;;;;4.97;89.70;100980.44;5051023;28;20650;-73
2020/12/21 06:13:52;;;;;;;12.73;11.53;;;;;;;4.98;89.09;100972.03;5051359;28;20179;-73
2020/12/21 06:16:19;;;;;;;12.77;11.50;;;;;;;4.96;89.48;100973.38;5051049;28;20241;-73
2020/12/21 06:19:13;;;;;;;24.23;18.87;;;;;;;4.91;89.48;100976.03;5050928;28;20561;-73
2020/12/21 06:21:49;;;;;;;16.97;13.67;;;;;;;4.87;89.63;100981.16;5051132;28;20184;-73
2020/12/21 06:24:20;;;;;;;13.83;12.53;;;;;;;4.87;90.05;100980.34;5050991;28;20174;-73
2020/12/21 06:26:46;;;;;;;11.27;10.27;;;;;;;4.84;90.28;100984.41;5050970;28;20685;-73
2020/12/21 06:29:17;;;;;;;10.00;9.00;;;;;;;4.97;89.85;100977.72;5050707;28;20182;-72
2020/12/21 06:31:51;;;;;;;10.30;9.17;;;;;;;4.96;89.42;100984.22;5050930;28;20187;-72
2020/12/21 06:34:32;;;;;;;11.90;10.70;;;;;;;4.98;89.16;100988.28;5050796;28;20171;-72
2020/12/21 06:37:10;;;;;;;9.90;8.90;;;;;;;4.95;89.64;100993.41;5050596;28;20198;-73
2020/12/21 06:39:36;;;;;;;9.27;8.37;;;;;;;4.98;89.06;100996.41;5051068;28;20191;-74
2020/12/21 06:42:09;;;;;;;10.53;8.80;;;;;;;4.92;89.24;100997.47;5050676;28;20175;-72
2020/12/21 06:44:39;;;;;;;11.73;9.10;;;;;;;4.87;89.48;100997.41;5050700;28;20171;-73
2020/12/21 06:47:06;;;;;;;9.67;8.60;;;;;;;4.78;89.44;101001.69;5050508;28;20182;-73
2020/12/21 06:49:31;;;;;;;11.50;9.27;;;;;;;4.62;89.86;101003.44;5050601;28;20643;-73
2020/12/21 06:51:56;;;;;;;11.23;9.90;;;;;;;4.62;89.84;100998.03;5050815;28;20163;-74
2020/12/21 06:54:22;;;;;;;10.57;9.57;;;;;;;4.66;90.06;100992.94;5050815;28;20178;-73
2020/12/21 06:56:49;;;;;;;11.77;10.03;;;;;;;4.70;90.16;100985.91;5050566;28;20171;-75
2020/12/21 06:59:19;;;;;;;9.97;8.97;;;;;;;4.64;90.13;100995.09;5050415;28;20167;-76
2020/12/21 07:01:47;;;;;;;15.83;9.70;;;;;;;4.71;89.75;100991.06;5050527;28;20167;-76
2020/12/21 07:04:17;;;;;;;9.87;8.67;;;;;;;4.73;89.60;100991.63;5050478;28;20171;-76
2020/12/21 07:06:44;;;;;;;10.10;8.67;;;;;;;4.71;89.51;100992.97;5050468;28;20172;-75
2020/12/21 07:09:10;;;;;;;13.10;8.63;;;;;;;4.62;89.87;100989.91;5050521;28;20176;-76
2020/12/21 07:11:41;;;;;;;6.63;4.50;;;;;;;4.80;89.60;100994.13;5052803;28;20574;-76
2020/12/21 07:14:07;;;;;;;11.10;7.60;;;;;;;4.80;89.12;100990.59;5054429;28;20171;-75
2020/12/21 07:16:33;;;;;;;9.33;8.50;;;;;;;4.82;89.37;100994.69;5054186;28;20233;-73
2020/12/21 07:18:58;;;;;;;10.30;7.43;;;;;;;4.85;88.89;100986.03;5054191;28;20183;-73
2020/12/21 07:21:24;;;;;;;8.50;7.40;;;;;;;4.90;88.89;100994.19;5054246;28;20682;-73
2020/12/21 07:23:49;;;;;;;10.40;7.87;;;;;;;4.93;88.70;101006.41;5054222;28;20202;-72
2020/12/21 07:26:15;;;;;;;5.40;4.23;;;;;;;4.97;88.29;101002.91;5052728;28;20254;-73
2020/12/21 07:28:45;;;;;;;5.73;5.10;;;;;;;5.00;88.13;101015.09;5054112;28;20266;-73
2020/12/21 07:31:14;;;;;;;8.90;6.67;;;;;;;5.02;88.02;101011.06;5054043;28;20175;-73
2020/12/21 07:33:56;;;;;;;8.10;6.33;;;;;;;5.00;88.04;101012.41;5053800;28;20254;-73
2020/12/21 07:36:37;;;;;;;9.70;7.27;;;;;;;4.96;87.79;101011.28;5053759;28;20193;-73
2020/12/21 07:39:12;;;;;;;5.63;4.17;;;;;;;4.93;88.27;101003.69;5054138;28;20182;-72
2020/12/21 07:41:40;;;;;;;6.47;5.30;;;;;;;4.90;88.10;100999.59;5053910;28;20167;-75
2020/12/21 07:44:20;;;;;;;5.73;5.03;;;;;;;4.96;88.01;101001.28;5053865;28;20175;-75
2020/12/21 07:47:03;;;;;;;5.00;4.50;;;;;;;4.96;87.51;101008.59;5053954;28;20281;-74
2020/12/21 07:49:32;;;;;;;4.60;2.77;;;;;;;4.94;87.60;101008.84;5054130;28;20175;-74
2020/12/21 07:52:00;;;;;;;7.20;6.03;;;;;;;4.97;87.37;101007.50;5052282;28;20183;-74
2020/12/21 07:54:29;;;;;;;7.33;4.13;;;;;;;4.95;87.56;101015.06;5053778;28;20171;-74
2020/12/21 07:57:06;;;;;;;7.83;5.23;;;;;;;5.01;87.22;101005.91;5053494;28;20248;-76
2020/12/21 07:59:32;;;;;;;7.07;5.40;;;;;;;5.00;87.27;100999.66;5053516;28;20187;-74
2020/12/21 08:02:04;;;;;;;7.03;5.27;;;;;;;4.98;87.45;101001.81;5053722;28;20182;-72
2020/12/21 08:04:29;;;;;;;5.57;5.03;;;;;;;5.02;86.98;101002.94;5053424;28;20179;-73
2020/12/21 08:07:11;;;;;;;12.07;6.47;;;;;;;5.04;87.13;101005.38;5053331;28;20171;-73
2020/12/21 08:09:38;;;;;;;8.20;4.93;;;;;;;4.97;86.93;101012.91;5053387;28;20183;-73
2020/12/21 08:12:09;;;;;;;6.33;5.43;;;;;;;5.01;87.02;101008.59;5053234;28;20650;-73
2020/12/21 08:14:34;;;;;;;8.70;6.00;;;;;;;5.04;87.14;100997.25;5053236;28;20389;-72
2020/12/21 08:17:09;;;;;;;7.10;5.90;;;;;;;5.05;87.09;100997.00;5053124;28;20217;-72
2020/12/21 08:19:54;;;;;;;9.77;6.80;;;;;;;5.06;86.83;100987.81;5053142;28;20174;-75
2020/12/21 08:22:21;;;;;;;6.77;2.47;;;;;;;5.10;86.90;100993.50;5052504;28;20266;-74
2020/12/21 08:24:59;;;;;;;5.57;3.50;;;;;;;5.10;87.24;100982.69;5053403;28;20171;-74
2020/12/21 08:27:24;;;;;;;2.87;2.20;;;;;;;5.11;87.06;100989.72;5052874;28;20266;-74
2020/12/21 08:29:50;;;;;;;8.80;6.20;;;;;;;5.15;87.08;100990.00;5053476;28;20325;-74
2020/12/21 08:32:15;;;;;;;8.23;6.60;;;;;;;5.16;87.31;100987.03;5053008;28;20361;-74
2020/12/21 08:34:41;;;;;;;7.90;7.10;;;;;;;5.15;87.09;100979.19;5052955;28;20175;-73
2020/12/21 08:37:07;;;;;;;7.40;6.80;;;;;;;5.17;87.43;100985.97;5052753;28;20207;-74
2020/12/21 08:39:32;;;;;;;7.43;6.73;;;;;;;5.18;86.99;100984.88;5052783;28;20179;-74
2020/12/21 08:41:59;;;;;;;9.07;6.90;;;;;;;5.23;87.04;100993.06;5052923;28;20652;-74
2020/12/21 08:44:27;;;;;;;4.67;4.03;;;;;;;5.24;86.96;100986.56;5052725;28;20171;-75
2020/12/21 08:46:57;;;;;;;9.03;7.33;;;;;;;5.24;86.73;100978.44;5052549;28;20171;-74
2020/12/21 08:49:24;;;;;;;9.00;6.40;;;;;;;5.33;86.67;100976.03;5054516;28;20754;-73
2020/12/21 08:51:50;;;;;;;8.57;7.67;;;;;;;5.36;86.28;100984.47;5062002;28;20175;-74
2020/12/21 08:54:16;;;;;;;6.13;5.17;;;;;;;5.43;86.12;100983.41;5054031;28;20175;-73
2020/12/21 08:56:56;;;;;;;6.73;4.73;;;;;;;5.45;85.98;100984.75;5053477;28;20184;-74
2020/12/21 08:59:22;;;;;;;7.40;4.90;;;;;;;5.50;85.63;100984.00;5052866;28;20175;-74
2020/12/21 09:01:47;;;;;;;2.97;2.67;;;;;;;5.58;85.26;100987.00;5052436;28;20179;-74
2020/12/21 09:04:13;;;;;;;1.60;1.43;;;;;;;5.64;84.85;100994.06;5052300;28;20194;-74
2020/12/21 09:06:38;;;;;;;7.00;5.67;;;;;;;5.69;84.84;100987.84;5052075;28;20175;-73
2020/12/21 09:09:05;;;;;;;6.70;4.83;;;;;;;5.75;84.35;100992.19;5052450;28;20198;-74
2020/12/21 09:11:31;;;;;;;7.77;6.43;;;;;;;5.75;84.26;101000.34;5051985;28;20186;-73
2020/12/21 09:13:56;;;;;;;7.60;5.47;;;;;;;5.79;84.62;101008.78;5052001;28;20183;-73
2020/12/21 09:16:24;;;;;;;4.57;3.87;;;;;;;5.82;84.21;101000.09;5051991;28;20659;-73
2020/12/21 09:18:51;;;;;;;1.80;1.70;;;;;;;5.86;83.65;101006.63;5051829;28;20665;-73
2020/12/21 09:21:18;;;;;;;6.53;4.30;;;;;;;5.89;83.89;101000.66;5051956;28;20226;-73
2020/12/21 09:23:44;;;;;;;9.43;5.83;;;;;;;5.89;83.97;100995.22;5051945;28;20186;-74
2020/12/21 09:26:09;;;;;;;10.17;5.60;;;;;;;5.90;83.97;100997.69;5051547;28;20183;-73
2020/12/21 09:28:34;;;;;;;7.67;5.83;;;;;;;5.92;84.10;100992.81;5051733;28;20472;-73
2020/12/21 09:31:00;;;;;;;4.73;4.23;;;;;;;5.99;83.79;100983.63;5051728;28;20225;-73
2020/12/21 09:33:28;;;;;;;3.00;2.77;;;;;;;6.08;83.44;100984.75;5049391;28;20171;-74
2020/12/21 09:35:53;;;;;;;6.43;4.27;;;;;;;6.13;83.49;100990.19;5051970;28;20175;-74
2020/12/21 09:38:19;;;;;;;6.73;5.20;;;;;;;6.20;83.14;100988.00;5051301;28;20317;-74
2020/12/21 09:40:44;;;;;;;5.50;4.40;;;;;;;6.29;83.48;100994.53;5051407;28;20171;-74
2020/12/21 09:43:09;;;;;;;7.80;4.03;;;;;;;6.34;82.28;100986.41;5051336;28;20175;-74
2020/12/21 09:45:35;;;;;;;6.43;4.80;;;;;;;6.46;82.04;100978.81;5051527;28;20171;-73
2020/12/21 09:48:00;;;;;;;6.07;3.97;;;;;;;6.48;82.15;100973.94;5050995;28;20213;-73
2020/12/21 09:50:25;;;;;;;5.07;4.27;;;;;;;6.46;81.77;100967.97;5051073;28;20261;-73
2020/12/21 09:52:50;;;;;;;3.53;2.27;;;;;;;6.48;81.94;100970.41;5051691;28;20635;-73
2020/12/21 09:55:16;;;;;;;4.10;2.97;;;;;;;6.47;81.31;100964.16;5051054;28;20174;-73
2020/12/21 09:57:42;;;;;;;8.53;4.13;;;;;;;6.51;81.47;100965.25;5050887;28;20218;-73
2020/12/21 10:00:07;;;;;;;4.67;3.63;;;;;;;6.49;80.83;100959.28;5051082;28;20228;-73
2020/12/21 10:02:32;;;;;;;2.47;1.80;;;;;;;6.49;80.39;100953.84;5049746;28;20562;-74
2020/12/21 10:04:58;;;;;;;4.20;1.10;;;;;;;6.48;80.77;100954.94;5051096;28;20460;-73
2020/12/21 10:07:23;;;;;;;4.60;2.27;;;;;;;6.46;80.85;100957.09;5050962;28;20221;-74
2020/12/21 10:09:49;;;;;;;8.43;3.00;;;;;;;6.47;80.30;100952.50;5050786;28;20579;-74
2020/12/21 10:12:14;;;;;;;1.83;1.57;;;;;;;6.46;80.99;100946.25;5050836;28;20171;-73
2020/12/21 10:14:42;;;;;;;5.27;3.47;;;;;;;6.46;80.77;100948.97;5050838;28;20168;-74
2020/12/21 10:17:08;;;;;;;9.97;4.13;;;;;;;6.43;80.50;100941.38;5050550;28;20198;-74
2020/12/21 10:19:34;;;;;;;7.90;3.97;;;;;;;6.37;80.89;100939.75;5050838;28;20171;-73
2020/12/21 10:21:59;;;;;;;2.87;2.03;;;;;;;6.36;81.12;100946.25;5050574;28;20167;-73
2020/12/21 10:24:24;;;;;;;2.40;1.63;;;;;;;6.34;81.01;100944.88;5050507;28;20182;-73
2020/12/21 10:26:49;;;;;;;3.57;2.03;;;;;;;6.34;80.69;100936.75;5050671;28;20205;-73
2020/12/21 10:29:15;;;;;;;3.03;1.40;;;;;;;6.32;80.74;100928.88;5050643;28;20167;-73
2020/12/21 10:31:40;;;;;;;5.53;4.20;;;;;;;6.33;81.00;100919.66;5050655;28;20171;-73
2020/12/21 10:34:06;;;;;;;7.67;3.30;;;;;;;6.34;80.69;100920.47;5050606;28;20178;-74
2020/12/21 10:36:31;;;;;;;6.03;4.03;;;;;;;6.37;80.92;100909.09;5050418;28;20647;-74
2020/12/21 10:38:56;;;;;;;4.17;2.60;;;;;;;6.41;80.89;100899.31;5050138;28;20642;-73
2020/12/21 10:41:22;;;;;;;6.27;3.17;;;;;;;6.46;81.24;100891.97;5050416;28;20236;-74
2020/12/21 10:43:47;;;;;;;4.17;2.87;;;;;;;6.61;80.62;100890.31;5048987;28;20542;-74
2020/12/21 10:46:20;;;;;;;4.43;3.57;;;;;;;6.73;80.39;100880.00;5050125;28;20627;-74
2020/12/21 10:48:45;;;;;;;4.97;3.90;;;;;;;6.86;80.22;100884.84;5050200;28;20189;-73
2020/12/21 10:51:10;;;;;;;3.97;3.23;;;;;;;7.01;79.96;100882.09;5048683;28;20175;-74
2020/12/21 10:53:36;;;;;;;5.23;1.83;;;;;;;7.11;79.00;100883.97;5048948;28;20525;-75
2020/12/21 10:56:01;;;;;;;5.33;3.10;;;;;;;7.20;78.49;100884.19;5050229;28;20175;-75
2020/12/21 10:58:26;;;;;;;4.23;1.60;;;;;;;7.30;78.55;100884.97;5050279;28;20290;-75
2020/12/21 11:00:52;;;;;;;2.70;2.50;;;;;;;7.40;78.22;100867.81;5050253;28;20179;-73
2020/12/21 11:03:17;;;;;;;2.40;1.37;;;;;;;7.47;77.24;100866.38;5050497;28;20202;-73
2020/12/21 11:05:42;;;;;;;4.67;3.33;;;;;;;7.57;77.98;100862.00;5050757;28;20259;-74
2020/12/21 11:08:08;;;;;;;5.47;4.00;;;;;;;7.59;77.56;100852.47;5050092;28;20175;-74
2020/12/21 11:10:33;;;;;;;2.23;1.30;;;;;;;7.70;77.13;100855.94;5050166;28;20175;-72
2020/12/21 11:12:58;;;;;;;4.43;3.10;;;;;;;7.72;75.95;100849.13;5050388;28;20172;-73
2020/12/21 11:15:24;;;;;;;2.80;2.57;;;;;;;7.71;76.48;100842.06;5050369;28;20175;-73
2020/12/21 11:17:50;;;;;;;2.47;1.87;;;;;;;7.76;75.75;100849.34;5050139;28;20195;-73
2020/12/21 11:20:15;;;;;;;5.30;2.87;;;;;;;7.75;75.99;100836.84;5050552;28;20175;-72
2020/12/21 11:22:42;;;;;;;4.37;3.00;;;;;;;7.82;76.44;100840.09;5048776;28;20236;-72
2020/12/21 11:25:08;;;;;;;8.63;3.30;;;;;;;7.84;75.75;100826.19;5050232;28;20178;-80
2020/12/21 11:27:33;;;;;;;6.20;1.80;;;;;;;7.88;75.09;100832.69;5050277;28;20233;-74
2020/12/21 11:29:59;;;;;;;5.83;3.67;;;;;;;7.81;75.78;100830.31;5050291;28;20179;-74